Prosperity, Missouri
Current Conditions -  °F | °C
As of 5:53 PM on Tuesday 25 Nov 2014 (Local Time) from KJLN Reporting Station
Clear Clear  
Wind Chill: 34°   Ceiling: Unl
Heat Index: 38°   Visibility: 10mi
Dew Point: 19°   Wind: 5mph
Humidity: 47%   Direction: 220°SW
Pressure: 30.14"   Gusts: NA
Location:  37.1074°N, 94.5218°W
Report Text: KJLN 252353Z 22004KT 10SM CLR 03/M07 A3014 RMK AO2 SLP214 T00331072 10072 20033 55007
Loading
Personal Weather Stations






























Interactive Weather Map New forecast layout! Learn more

10-Day Weather Forecast

Advertisements
Track Severe Weather on mobile